createdAt,value
2023-03-06T00:00:52.488Z,46.20
2023-03-06T00:03:21.724Z,41.50
2023-03-06T00:05:50.937Z,40.00
2023-03-06T00:08:19.960Z,44.17
2023-03-06T00:10:48.852Z,47.77
2023-03-06T00:13:19.457Z,42.93
2023-03-06T00:15:48.955Z,37.20
2023-03-06T00:18:18.185Z,40.53
2023-03-06T00:20:47.856Z,42.80
2023-03-06T00:23:16.671Z,41.93
2023-03-06T00:25:45.707Z,39.87
2023-03-06T00:28:15.272Z,44.70
2023-03-06T00:30:47.029Z,41.93
2023-03-06T00:33:16.072Z,41.13
2023-03-06T00:35:45.185Z,40.67
2023-03-06T00:38:14.142Z,42.43
2023-03-06T00:40:44.375Z,38.50
2023-03-06T00:43:13.353Z,41.30
2023-03-06T00:45:44.806Z,41.97
2023-03-06T00:48:15.707Z,46.73
2023-03-06T00:50:45.631Z,45.23
2023-03-06T00:53:14.483Z,43.57
2023-03-06T00:55:46.003Z,42.13
2023-03-06T00:58:14.857Z,48.57
2023-03-06T01:00:44.771Z,48.20
2023-03-06T01:03:16.300Z,41.30
2023-03-06T01:05:45.393Z,44.67
2023-03-06T01:08:14.171Z,46.57
2023-03-06T01:10:48.869Z,44.27
2023-03-06T01:13:18.650Z,46.95
2023-03-06T01:15:47.854Z,43.67
2023-03-06T01:18:16.736Z,39.70
2023-03-06T01:20:45.772Z,45.43
2023-03-06T01:23:15.507Z,48.60
2023-03-06T01:25:44.739Z,43.33
2023-03-06T01:28:13.492Z,53.30
2023-03-06T01:30:43.610Z,44.43
2023-03-06T01:33:12.536Z,50.20
2023-03-06T01:35:42.134Z,48.70
2023-03-06T01:38:12.047Z,39.77
2023-03-06T01:40:42.150Z,40.23
2023-03-06T01:43:25.719Z,45.43
2023-03-06T01:46:28.395Z,39.10
2023-03-06T01:49:05.979Z,40.67
2023-03-06T01:51:43.217Z,39.60
2023-03-06T01:54:20.534Z,50.43
2023-03-06T01:56:56.810Z,46.55
2023-03-06T01:59:27.984Z,42.30
2023-03-06T02:02:01.716Z,45.57
2023-03-06T02:04:32.016Z,41.68
2023-03-06T02:07:04.316Z,36.23
2023-03-06T02:09:37.953Z,37.30
2023-03-06T02:12:11.468Z,39.80
2023-03-06T02:14:46.469Z,37.45
2023-03-06T02:17:18.603Z,39.97
2023-03-06T02:20:00.121Z,40.13
2023-03-06T02:22:37.161Z,38.77
2023-03-06T02:25:21.451Z,38.40
2023-03-06T02:27:51.116Z,41.70
2023-03-06T02:30:21.557Z,36.63
2023-03-06T02:32:52.416Z,40.00
2023-03-06T02:35:24.636Z,41.13
2023-03-06T02:37:59.105Z,38.80
2023-03-06T02:40:28.746Z,42.27
2023-03-06T02:42:59.368Z,36.90
2023-03-06T02:45:35.696Z,34.47
2023-03-06T02:48:05.691Z,37.83
2023-03-06T02:50:34.906Z,37.65
2023-03-06T02:53:04.402Z,36.47
2023-03-06T02:55:35.626Z,38.97
2023-03-06T02:58:06.145Z,37.40
2023-03-06T03:00:35.840Z,39.43
2023-03-06T03:03:06.414Z,34.73
2023-03-06T03:05:38.932Z,36.57
2023-03-06T03:08:14.542Z,38.13
2023-03-06T03:10:44.463Z,44.73
2023-03-06T03:13:15.699Z,39.70
2023-03-06T03:15:45.246Z,41.93
2023-03-06T03:18:15.484Z,34.77
2023-03-06T03:20:44.484Z,32.37
2023-03-06T03:23:14.127Z,35.97
2023-03-06T03:25:43.450Z,35.93
2023-03-06T03:28:12.432Z,35.63
2023-03-06T03:30:42.786Z,41.17
2023-03-06T03:33:14.376Z,40.23
2023-03-06T03:35:46.596Z,42.57
2023-03-06T03:38:15.576Z,36.17
2023-03-06T03:40:44.989Z,34.37
2023-03-06T03:43:14.129Z,37.27
2023-03-06T03:45:44.436Z,40.33
2023-03-06T03:48:18.097Z,40.17
2023-03-06T03:50:47.260Z,35.67
2023-03-06T03:53:16.816Z,38.67
2023-03-06T03:55:47.961Z,36.13
2023-03-06T03:58:18.485Z,39.63
2023-03-06T04:00:51.000Z,38.03
2023-03-06T04:03:20.465Z,38.50
2023-03-06T04:05:49.488Z,35.87
2023-03-06T04:08:21.800Z,37.77
2023-03-06T04:10:51.606Z,36.93
2023-03-06T04:13:23.730Z,42.20
2023-03-06T04:15:59.203Z,39.15
2023-03-06T04:18:31.170Z,38.70
2023-03-06T04:21:07.408Z,38.57
2023-03-06T04:23:36.525Z,47.07
2023-03-06T04:26:09.612Z,41.03
2023-03-06T04:28:38.653Z,44.27
2023-03-06T04:31:08.113Z,42.50
2023-03-06T04:33:41.055Z,41.53
2023-03-06T04:36:24.739Z,46.75
2023-03-06T04:38:57.691Z,39.70
2023-03-06T04:41:26.925Z,42.43
2023-03-06T04:43:59.003Z,42.37
2023-03-06T04:46:52.427Z,45.53
2023-03-06T04:49:21.857Z,37.23
2023-03-06T04:51:50.967Z,45.00
2023-03-06T04:54:19.831Z,43.17
2023-03-06T04:56:52.578Z,46.80
2023-03-06T04:59:24.020Z,39.60
2023-03-06T05:01:54.096Z,41.27
2023-03-06T05:04:24.778Z,39.57
2023-03-06T05:07:02.043Z,40.10
2023-03-06T05:09:31.122Z,38.97
2023-03-06T05:12:02.654Z,36.13
2023-03-06T05:14:33.717Z,36.80
2023-03-06T05:17:05.161Z,38.37
2023-03-06T05:19:34.189Z,38.77
2023-03-06T05:22:05.602Z,37.70
2023-03-06T05:24:34.569Z,38.25
2023-03-06T05:27:10.007Z,41.73
2023-03-06T05:29:39.018Z,33.97
2023-03-06T05:32:09.018Z,39.70
2023-03-06T05:34:40.107Z,41.33
2023-03-06T05:37:09.351Z,44.57
2023-03-06T05:39:38.642Z,38.97
2023-03-06T05:42:10.917Z,42.37
2023-03-06T05:44:41.274Z,43.03
2023-03-06T05:47:12.896Z,46.17
2023-03-06T05:49:42.122Z,45.27
2023-03-06T05:52:13.085Z,51.73
2023-03-06T05:54:42.539Z,42.37
2023-03-06T05:57:11.957Z,40.90
2023-03-06T05:59:40.829Z,44.03
2023-03-06T06:02:11.002Z,40.23
2023-03-06T06:04:39.910Z,43.43
2023-03-06T06:07:12.534Z,47.47
2023-03-06T06:09:42.957Z,51.50
2023-03-06T06:12:12.979Z,48.97
2023-03-06T06:14:43.225Z,55.43
2023-03-06T06:17:12.437Z,47.77
2023-03-06T06:19:41.371Z,57.47
2023-03-06T06:22:11.146Z,57.60
2023-03-06T06:24:40.108Z,58.27
2023-03-06T06:27:10.036Z,54.73
2023-03-06T06:29:39.034Z,57.50
2023-03-06T06:32:08.569Z,53.60
2023-03-06T06:34:40.185Z,53.90
2023-03-06T06:37:11.977Z,51.93
2023-03-06T06:39:42.033Z,47.07
2023-03-06T06:42:29.443Z,53.53
2023-03-06T06:45:01.330Z,49.33
2023-03-06T06:47:30.353Z,59.87
2023-03-06T06:49:59.926Z,43.17
2023-03-06T06:52:28.806Z,47.50
2023-03-06T06:55:00.242Z,55.60
2023-03-06T06:57:29.634Z,46.40
2023-03-06T06:59:59.774Z,48.07
2023-03-06T07:02:28.798Z,51.30
2023-03-06T07:05:05.941Z,44.47
2023-03-06T07:07:36.696Z,44.47
2023-03-06T07:10:08.694Z,39.17
2023-03-06T07:12:38.280Z,41.30
2023-03-06T07:15:13.508Z,43.30
2023-03-06T07:17:43.347Z,41.23
2023-03-06T07:20:15.331Z,32.60
2023-03-06T07:22:51.256Z,36.40
2023-03-06T07:25:22.607Z,37.73
2023-03-06T07:27:54.645Z,34.90
2023-03-06T07:30:25.399Z,44.03
2023-03-06T07:32:57.150Z,38.43
2023-03-06T07:35:27.941Z,38.33
2023-03-06T07:37:58.724Z,33.90
2023-03-06T07:40:28.134Z,38.40
2023-03-06T07:43:13.038Z,32.37
2023-03-06T07:45:58.521Z,29.60
2023-03-06T07:48:29.269Z,30.40
2023-03-06T07:51:01.237Z,26.50
2023-03-06T07:53:30.545Z,26.20
2023-03-06T07:55:59.546Z,28.67
2023-03-06T07:58:28.325Z,25.60
2023-03-06T08:00:57.884Z,24.13
2023-03-06T08:03:27.096Z,22.13
2023-03-06T08:06:06.373Z,26.33
2023-03-06T08:08:35.654Z,21.53
2023-03-06T08:11:09.062Z,28.27
2023-03-06T08:13:38.259Z,22.70
2023-03-06T08:16:09.170Z,20.87
2023-03-06T08:18:39.426Z,23.97
2023-03-06T08:21:11.201Z,26.90
2023-03-06T08:23:41.169Z,24.57
2023-03-06T08:26:14.228Z,25.83
2023-03-06T08:28:43.012Z,25.07
2023-03-06T08:31:21.024Z,23.03
2023-03-06T08:33:50.329Z,24.70
2023-03-06T08:36:20.223Z,22.77
2023-03-06T08:38:49.128Z,23.40
2023-03-06T08:41:20.229Z,22.03
2023-03-06T08:43:49.585Z,23.00
2023-03-06T08:46:21.879Z,22.87
2023-03-06T08:48:51.202Z,23.30
2023-03-06T08:51:21.622Z,21.87
2023-03-06T08:53:51.215Z,21.20
2023-03-06T08:56:23.601Z,21.03
2023-03-06T08:58:53.634Z,21.83
2023-03-06T09:01:24.816Z,21.43
2023-03-06T09:03:57.116Z,19.33
2023-03-06T09:06:27.805Z,18.07
2023-03-06T09:08:58.713Z,27.23
2023-03-06T09:11:28.445Z,31.13
2023-03-06T09:13:59.447Z,43.23
2023-03-06T09:16:31.482Z,20.73
2023-03-06T09:19:00.539Z,27.10
2023-03-06T09:21:29.851Z,23.47
2023-03-06T09:23:59.922Z,20.47
2023-03-06T09:26:43.258Z,19.77
2023-03-06T09:29:17.132Z,30.93
2023-03-06T09:31:57.951Z,47.43
2023-03-06T09:34:27.351Z,76.83
2023-03-06T09:36:57.801Z,185.60
2023-03-06T09:39:26.936Z,31.00
2023-03-06T09:41:58.841Z,26.40
2023-03-06T09:44:30.896Z,25.53
2023-03-06T09:47:25.084Z,23.17
2023-03-06T09:50:13.264Z,24.67
2023-03-06T09:52:57.474Z,24.20
2023-03-06T09:55:30.176Z,28.43
2023-03-06T09:58:02.587Z,26.23
2023-03-06T10:00:36.906Z,20.90
2023-03-06T10:05:52.402Z,20.40
2023-03-06T10:08:31.326Z,21.80
2023-03-06T10:11:03.134Z,19.67
2023-03-06T10:13:39.260Z,21.17
2023-03-06T10:16:22.875Z,20.70
2023-03-06T10:18:57.300Z,13.83
2023-03-06T10:21:38.068Z,17.13
2023-03-06T10:24:19.353Z,16.20
2023-03-06T10:26:58.078Z,19.80
2023-03-06T10:29:56.391Z,20.73
2023-03-06T10:32:48.564Z,19.37
2023-03-06T10:35:23.836Z,23.67
2023-03-06T10:38:04.614Z,48.63
2023-03-06T10:40:44.334Z,32.53
2023-03-06T10:43:13.245Z,29.20
2023-03-06T10:45:53.938Z,27.53
2023-03-06T10:48:25.267Z,20.77
2023-03-06T10:51:18.649Z,16.30
2023-03-06T10:53:54.531Z,21.23
2023-03-06T10:56:29.511Z,19.73
2023-03-06T10:59:11.970Z,25.20
2023-03-06T11:01:50.297Z,25.07
2023-03-06T11:04:26.128Z,21.37
2023-03-06T11:07:14.523Z,14.95
2023-03-06T11:09:47.227Z,17.50
2023-03-06T11:12:23.653Z,18.60
2023-03-06T11:15:17.204Z,15.33
2023-03-06T11:17:53.477Z,17.97
2023-03-06T11:20:27.146Z,17.13
2023-03-06T11:23:03.191Z,15.23
2023-03-06T11:25:36.901Z,19.13
2023-03-06T11:28:13.867Z,16.73
2023-03-06T11:30:47.311Z,21.33
2023-03-06T11:33:22.527Z,17.00
2023-03-06T11:35:57.841Z,15.67
2023-03-06T11:38:36.153Z,20.50
2023-03-06T11:41:13.806Z,15.80
2023-03-06T11:43:52.844Z,26.17
2023-03-06T11:46:26.471Z,12.97
2023-03-06T11:49:06.214Z,21.33
2023-03-06T11:51:42.714Z,31.13
2023-03-06T11:54:13.786Z,21.50
2023-03-06T11:56:52.540Z,22.37
2023-03-06T12:00:05.606Z,25.27
2023-03-06T12:02:57.576Z,17.57
2023-03-06T12:05:36.847Z,13.87
2023-03-06T12:08:23.252Z,16.27
2023-03-06T12:10:57.993Z,18.37
2023-03-06T12:13:58.633Z,20.97
2023-03-06T12:16:43.735Z,20.63
2023-03-06T12:19:30.314Z,17.92
2023-03-06T12:22:21.377Z,21.80
2023-03-06T12:25:07.318Z,16.67
2023-03-06T12:27:45.231Z,23.17
2023-03-06T12:30:36.335Z,24.60
2023-03-06T12:33:16.884Z,27.37
2023-03-06T12:35:57.991Z,22.20
2023-03-06T12:38:51.599Z,21.37
2023-03-06T12:41:31.343Z,26.07
2023-03-06T12:44:26.031Z,25.63
2023-03-06T12:47:02.160Z,27.07
2023-03-06T12:49:34.031Z,26.07
2023-03-06T12:52:07.114Z,24.77
2023-03-06T12:54:40.438Z,26.50
2023-03-06T12:57:14.595Z,28.73
2023-03-06T12:59:47.440Z,23.87
2023-03-06T13:02:45.052Z,23.53
2023-03-06T13:05:45.894Z,29.50
2023-03-06T13:08:34.843Z,26.90
2023-03-06T13:11:23.136Z,29.03
2023-03-06T13:13:52.304Z,35.70
2023-03-06T13:16:30.400Z,26.30
2023-03-06T13:19:18.377Z,26.90
2023-03-06T13:22:01.320Z,24.13
2023-03-06T13:24:33.044Z,27.57
2023-03-06T13:27:05.677Z,30.53
2023-03-06T13:30:21.240Z,29.83
2023-03-06T13:32:52.877Z,32.17
2023-03-06T13:35:52.019Z,32.23
2023-03-06T13:38:54.358Z,28.37
2023-03-06T13:41:58.114Z,27.63
2023-03-06T13:44:50.489Z,29.17
2023-03-06T13:48:10.636Z,27.87
2023-03-06T13:50:36.495Z,36.57
2023-03-06T13:53:47.441Z,38.20
2023-03-06T13:56:41.129Z,37.97
2023-03-06T13:59:25.325Z,38.67
2023-03-06T14:02:09.890Z,37.28
2023-03-06T14:04:53.262Z,35.17
2023-03-06T14:07:26.200Z,35.13
2023-03-06T14:10:11.035Z,40.13
2023-03-06T14:13:01.973Z,33.83
2023-03-06T14:15:43.943Z,31.80
2023-03-06T14:18:20.364Z,34.37
2023-03-06T14:20:55.171Z,38.00
2023-03-06T14:23:28.204Z,33.67
2023-03-06T14:26:03.758Z,48.43
2023-03-06T14:28:35.926Z,56.33
2023-03-06T14:31:06.642Z,51.33
2023-03-06T14:33:42.970Z,43.73
2023-03-06T14:36:16.990Z,47.40
2023-03-06T14:38:48.646Z,41.45
2023-03-06T14:41:25.975Z,43.00
2023-03-06T14:44:17.201Z,48.03
2023-03-06T14:46:49.784Z,39.87
2023-03-06T14:49:20.462Z,34.80
2023-03-06T14:51:51.537Z,37.47
2023-03-06T14:54:24.593Z,35.90
2023-03-06T14:56:57.710Z,36.90
2023-03-06T14:59:29.411Z,44.70
2023-03-06T15:02:02.703Z,64.07
2023-03-06T15:04:38.876Z,49.67
2023-03-06T15:07:12.995Z,45.90
2023-03-06T15:09:54.530Z,55.20
2023-03-06T15:12:38.086Z,53.93
2023-03-06T15:15:29.739Z,54.93
2023-03-06T15:18:00.310Z,56.67
2023-03-06T15:20:45.354Z,56.70
2023-03-06T15:23:21.119Z,50.37
2023-03-06T15:25:57.421Z,58.63
2023-03-06T15:28:33.767Z,50.77
2023-03-06T15:31:21.396Z,51.33
2023-03-06T15:34:17.953Z,58.53
2023-03-06T15:36:48.439Z,49.67
2023-03-06T15:39:40.882Z,55.70
2023-03-06T15:42:19.830Z,46.80
2023-03-06T15:44:52.836Z,51.67
2023-03-06T15:47:23.208Z,51.23
2023-03-06T15:49:52.718Z,48.87
2023-03-06T15:52:22.288Z,56.27
2023-03-06T15:54:54.344Z,50.07
2023-03-06T15:57:26.053Z,55.17
2023-03-06T15:59:56.792Z,54.70
2023-03-06T16:02:25.968Z,52.07
2023-03-06T16:04:54.884Z,49.07
2023-03-06T16:07:28.030Z,51.57
2023-03-06T16:09:57.803Z,54.63
2023-03-06T16:12:29.640Z,46.40
2023-03-06T16:15:02.175Z,59.83
2023-03-06T16:17:31.196Z,67.17
2023-03-06T16:20:00.028Z,56.07
2023-03-06T16:22:28.929Z,56.60
2023-03-06T16:25:00.269Z,62.47
2023-03-06T16:27:29.492Z,56.53
2023-03-06T16:29:58.889Z,54.17
2023-03-06T16:32:28.872Z,56.50
2023-03-06T16:35:00.014Z,80.37
2023-03-06T16:37:29.062Z,58.93
2023-03-06T16:40:00.519Z,53.27
2023-03-06T16:42:29.934Z,53.03
2023-03-06T16:45:00.649Z,73.03
2023-03-06T16:47:31.471Z,84.97
2023-03-06T16:50:01.658Z,77.97
2023-03-06T16:52:31.276Z,60.90
2023-03-06T16:55:00.233Z,55.23
2023-03-06T16:57:35.022Z,50.70
2023-03-06T17:00:06.548Z,57.03
2023-03-06T17:02:36.022Z,53.67
2023-03-06T17:05:06.749Z,54.37
2023-03-06T17:07:37.799Z,51.00
2023-03-06T17:10:09.924Z,51.45
2023-03-06T17:12:39.155Z,69.43
2023-03-06T17:15:10.855Z,76.53
2023-03-06T17:17:41.455Z,63.27
2023-03-06T17:20:16.350Z,51.03
2023-03-06T17:22:45.477Z,52.33
2023-03-06T17:25:23.862Z,51.50
2023-03-06T17:27:52.968Z,53.03
2023-03-06T17:30:22.166Z,55.10
2023-03-06T17:32:53.090Z,53.97
2023-03-06T17:35:21.993Z,57.20
2023-03-06T17:37:54.427Z,60.23
2023-03-06T17:40:23.316Z,54.63
2023-03-06T17:42:53.602Z,57.83
2023-03-06T17:45:22.374Z,57.00
2023-03-06T17:47:57.253Z,55.70
2023-03-06T17:50:26.312Z,55.60
2023-03-06T17:52:58.499Z,50.97
2023-03-06T17:55:28.468Z,51.63
2023-03-06T17:57:58.493Z,61.07
2023-03-06T18:00:27.701Z,60.70
2023-03-06T18:02:57.614Z,61.20
2023-03-06T18:05:26.930Z,53.77
2023-03-06T18:07:59.013Z,53.50
2023-03-06T18:10:29.561Z,45.60
2023-03-06T18:12:59.614Z,42.20
2023-03-06T18:15:28.839Z,50.50
2023-03-06T18:18:00.902Z,48.83
2023-03-06T18:20:29.977Z,48.83
2023-03-06T18:23:03.069Z,52.70
2023-03-06T18:25:32.097Z,49.93
2023-03-06T18:28:01.573Z,55.67
2023-03-06T18:30:30.681Z,61.20
2023-03-06T18:33:00.324Z,65.80
2023-03-06T18:35:29.665Z,74.10
2023-03-06T18:38:01.518Z,73.97
2023-03-06T18:40:31.926Z,73.13
2023-03-06T18:43:08.627Z,68.53
2023-03-06T18:45:40.693Z,67.03
2023-03-06T18:48:11.472Z,81.20
2023-03-06T18:50:46.247Z,92.43
2023-03-06T18:53:15.289Z,88.52
2023-03-06T18:55:48.579Z,83.10
2023-03-06T18:58:19.794Z,83.07
2023-03-06T19:00:49.527Z,73.03
2023-03-06T19:03:18.928Z,58.70
2023-03-06T19:05:49.397Z,76.40
2023-03-06T19:08:19.219Z,71.10
2023-03-06T19:10:49.641Z,62.00
2023-03-06T19:13:18.906Z,55.37
2023-03-06T19:15:49.055Z,70.23
2023-03-06T19:18:18.779Z,54.83
2023-03-06T19:20:47.710Z,62.40
2023-03-06T19:23:17.007Z,57.27
2023-03-06T19:25:57.074Z,72.43
2023-03-06T19:28:27.775Z,43.33
2023-03-06T19:31:08.622Z,42.73
2023-03-06T19:33:45.705Z,41.50
2023-03-06T19:36:17.938Z,37.63
2023-03-06T19:39:01.937Z,53.97
2023-03-06T19:41:32.527Z,42.57
2023-03-06T19:44:06.058Z,35.40
2023-03-06T19:46:36.183Z,43.30
2023-03-06T19:49:12.217Z,38.50
2023-03-06T19:51:44.761Z,36.23
2023-03-06T19:54:14.545Z,31.93
2023-03-06T19:56:47.894Z,30.47
2023-03-06T19:59:19.139Z,28.50
2023-03-06T20:01:53.512Z,29.37
2023-03-06T20:04:25.351Z,29.50
2023-03-06T20:07:04.805Z,31.67
2023-03-06T20:09:35.224Z,28.47
2023-03-06T20:12:08.941Z,32.33
2023-03-06T20:14:54.795Z,33.37
2023-03-06T20:17:27.324Z,25.60
2023-03-06T20:20:02.869Z,27.93
2023-03-06T20:22:35.311Z,26.40
2023-03-06T20:25:10.482Z,31.93
2023-03-06T20:27:44.793Z,35.17
2023-03-06T20:30:18.845Z,27.43
2023-03-06T20:32:56.034Z,30.37
2023-03-06T20:35:26.831Z,39.60
2023-03-06T20:38:00.985Z,30.47
2023-03-06T20:40:32.495Z,32.15
2023-03-06T20:43:03.570Z,29.87
2023-03-06T20:45:35.479Z,26.83
2023-03-06T20:48:08.839Z,26.57
2023-03-06T20:50:41.250Z,28.67
2023-03-06T20:53:11.098Z,28.00
2023-03-06T20:55:40.036Z,26.13
2023-03-06T20:58:09.177Z,26.10
2023-03-06T21:00:38.110Z,40.33
2023-03-06T21:03:09.769Z,34.43
2023-03-06T21:05:38.624Z,33.60
2023-03-06T21:08:08.019Z,30.97
2023-03-06T21:10:38.708Z,40.40
2023-03-06T21:13:07.702Z,44.23
2023-03-06T21:15:38.725Z,40.87
2023-03-06T21:18:09.435Z,48.47
2023-03-06T21:20:39.679Z,48.60
2023-03-06T21:23:08.978Z,39.07
2023-03-06T21:25:46.037Z,39.47
2023-03-06T21:28:23.148Z,33.00
2023-03-06T21:33:26.185Z,35.10
2023-03-06T21:35:55.080Z,32.40
2023-03-06T21:38:25.418Z,33.97
2023-03-06T21:40:55.770Z,34.77
2023-03-06T21:43:25.432Z,35.73
2023-03-06T21:45:58.698Z,33.53
2023-03-06T21:48:27.694Z,33.03
2023-03-06T21:51:07.162Z,34.87
2023-03-06T21:53:36.971Z,34.53
2023-03-06T21:56:08.110Z,36.33
2023-03-06T21:58:37.621Z,32.33
2023-03-06T22:01:10.884Z,37.13
2023-03-06T22:03:40.054Z,34.00
2023-03-06T22:06:11.621Z,32.77
2023-03-06T22:08:42.616Z,35.97
2023-03-06T22:11:13.607Z,37.43
2023-03-06T22:13:43.354Z,41.60
2023-03-06T22:16:12.603Z,41.80
2023-03-06T22:18:45.370Z,44.77
2023-03-06T22:21:16.946Z,44.17
2023-03-06T22:23:57.842Z,45.10
2023-03-06T22:26:28.069Z,47.67
2023-03-06T22:28:58.598Z,49.73
2023-03-06T22:31:28.530Z,48.90
2023-03-06T22:34:00.213Z,47.27
2023-03-06T22:36:30.521Z,54.77
2023-03-06T22:39:03.646Z,49.67
2023-03-06T22:41:32.648Z,44.73
2023-03-06T22:44:02.505Z,50.80
2023-03-06T22:46:33.144Z,53.57
2023-03-06T22:49:04.535Z,48.80
2023-03-06T22:51:33.371Z,43.77
2023-03-06T22:54:02.378Z,47.97
2023-03-06T22:56:31.641Z,45.20
2023-03-06T22:59:00.743Z,48.67
2023-03-06T23:01:31.818Z,47.53
2023-03-06T23:04:04.312Z,48.47
2023-03-06T23:06:35.173Z,43.17
2023-03-06T23:09:06.700Z,54.03
2023-03-06T23:11:54.804Z,49.17
2023-03-06T23:14:43.157Z,47.03
2023-03-06T23:17:31.048Z,54.30
2023-03-06T23:20:23.295Z,50.73
2023-03-06T23:23:11.694Z,43.33
2023-03-06T23:25:44.567Z,45.17
2023-03-06T23:28:13.624Z,41.80
2023-03-06T23:30:43.270Z,48.30
2023-03-06T23:33:12.331Z,45.97
2023-03-06T23:35:44.041Z,43.70
2023-03-06T23:38:13.156Z,47.87
2023-03-06T23:40:42.267Z,47.17
2023-03-06T23:43:11.157Z,47.77
2023-03-06T23:45:40.332Z,51.10
2023-03-06T23:48:09.222Z,48.10
2023-03-06T23:50:42.024Z,48.25
2023-03-06T23:53:14.433Z,46.27
2023-03-06T23:55:43.942Z,50.90
2023-03-06T23:58:15.203Z,50.63
